sensor_id;sensor_type;location;lat;lon;timestamp;pressure;altitude;pressure_sealevel;temperature
22322;BMP180;11328;53.928;18.522;2022-10-17T00:00:53;101054.00;;;14.20
22322;BMP180;11328;53.928;18.522;2022-10-17T00:03:20;101045.00;;;14.10
22322;BMP180;11328;53.928;18.522;2022-10-17T00:05:48;101037.00;;;14.20
22322;BMP180;11328;53.928;18.522;2022-10-17T00:08:17;101040.00;;;14.30
22322;BMP180;11328;53.928;18.522;2022-10-17T00:10:45;101049.00;;;14.30
22322;BMP180;11328;53.928;18.522;2022-10-17T00:13:12;101062.00;;;14.30
22322;BMP180;11328;53.928;18.522;2022-10-17T00:15:43;101063.00;;;14.20
22322;BMP180;11328;53.928;18.522;2022-10-17T00:18:10;101069.00;;;14.20
22322;BMP180;11328;53.928;18.522;2022-10-17T00:20:37;101062.00;;;14.20
22322;BMP180;11328;53.928;18.522;2022-10-17T00:23:04;101071.00;;;14.30
22322;BMP180;11328;53.928;18.522;2022-10-17T00:25:31;101061.00;;;14.20
22322;BMP180;11328;53.928;18.522;2022-10-17T00:27:58;101075.00;;;14.20
22322;BMP180;11328;53.928;18.522;2022-10-17T00:30:25;101078.00;;;14.20
22322;BMP180;11328;53.928;18.522;2022-10-17T00:32:52;101071.00;;;14.10
22322;BMP180;11328;53.928;18.522;2022-10-17T00:35:19;101062.00;;;14.10
22322;BMP180;11328;53.928;18.522;2022-10-17T00:37:46;101066.00;;;14.10
22322;BMP180;11328;53.928;18.522;2022-10-17T00:40:13;101087.00;;;14.10
22322;BMP180;11328;53.928;18.522;2022-10-17T00:42:40;101081.00;;;14.10
22322;BMP180;11328;53.928;18.522;2022-10-17T00:45:18;101082.00;;;14.10
22322;BMP180;11328;53.928;18.522;2022-10-17T00:47:52;101068.00;;;14.10
22322;BMP180;11328;53.928;18.522;2022-10-17T00:50:22;101082.00;;;14.00
22322;BMP180;11328;53.928;18.522;2022-10-17T00:52:50;101082.00;;;14.00
22322;BMP180;11328;53.928;18.522;2022-10-17T00:55:24;101083.00;;;13.90
22322;BMP180;11328;53.928;18.522;2022-10-17T00:57:57;101084.00;;;13.90
22322;BMP180;11328;53.928;18.522;2022-10-17T01:00:26;101086.00;;;13.90
22322;BMP180;11328;53.928;18.522;2022-10-17T01:02:53;101099.00;;;13.90
22322;BMP180;11328;53.928;18.522;2022-10-17T01:05:20;101092.00;;;13.90
22322;BMP180;11328;53.928;18.522;2022-10-17T01:07:50;101091.00;;;13.80
22322;BMP180;11328;53.928;18.522;2022-10-17T01:10:19;101102.00;;;13.80
22322;BMP180;11328;53.928;18.522;2022-10-17T01:16:13;101108.00;;;13.70
22322;BMP180;11328;53.928;18.522;2022-10-17T01:21:59;101096.00;;;13.50
22322;BMP180;11328;53.928;18.522;2022-10-17T01:33:42;101124.00;;;13.30
22322;BMP180;11328;53.928;18.522;2022-10-17T01:37:00;101111.00;;;13.30
22322;BMP180;11328;53.928;18.522;2022-10-17T01:39:41;101107.00;;;13.30
22322;BMP180;11328;53.928;18.522;2022-10-17T01:42:32;101114.00;;;13.20
22322;BMP180;11328;53.928;18.522;2022-10-17T01:45:30;101118.00;;;13.20
22322;BMP180;11328;53.928;18.522;2022-10-17T01:48:04;101117.00;;;13.10
22322;BMP180;11328;53.928;18.522;2022-10-17T01:50:40;101124.00;;;13.10
22322;BMP180;11328;53.928;18.522;2022-10-17T01:53:15;101127.00;;;13.10
22322;BMP180;11328;53.928;18.522;2022-10-17T01:55:47;101129.00;;;13.10
22322;BMP180;11328;53.928;18.522;2022-10-17T01:58:32;101129.00;;;13.10
22322;BMP180;11328;53.928;18.522;2022-10-17T02:01:06;101095.00;;;13.10
22322;BMP180;11328;53.928;18.522;2022-10-17T02:03:36;101124.00;;;13.10
22322;BMP180;11328;53.928;18.522;2022-10-17T02:06:05;101121.00;;;13.20
22322;BMP180;11328;53.928;18.522;2022-10-17T02:08:49;101122.00;;;13.10
22322;BMP180;11328;53.928;18.522;2022-10-17T02:11:21;101122.00;;;13.10
22322;BMP180;11328;53.928;18.522;2022-10-17T02:17:09;101133.00;;;13.00
22322;BMP180;11328;53.928;18.522;2022-10-17T02:23:09;101134.00;;;13.00
22322;BMP180;11328;53.928;18.522;2022-10-17T02:25:44;101140.00;;;13.00
22322;BMP180;11328;53.928;18.522;2022-10-17T02:28:42;101146.00;;;12.90
22322;BMP180;11328;53.928;18.522;2022-10-17T02:31:26;101150.00;;;12.80
22322;BMP180;11328;53.928;18.522;2022-10-17T02:34:04;101158.00;;;12.80
22322;BMP180;11328;53.928;18.522;2022-10-17T02:36:39;101154.00;;;12.80
22322;BMP180;11328;53.928;18.522;2022-10-17T02:39:08;101160.00;;;12.70
22322;BMP180;11328;53.928;18.522;2022-10-17T02:41:39;101157.00;;;12.80
22322;BMP180;11328;53.928;18.522;2022-10-17T02:44:08;101164.00;;;12.80
22322;BMP180;11328;53.928;18.522;2022-10-17T02:46:39;101150.00;;;12.80
22322;BMP180;11328;53.928;18.522;2022-10-17T02:49:20;101149.00;;;12.70
22322;BMP180;11328;53.928;18.522;2022-10-17T02:52:21;101160.00;;;12.80
22322;BMP180;11328;53.928;18.522;2022-10-17T02:54:58;101162.00;;;12.70
22322;BMP180;11328;53.928;18.522;2022-10-17T02:57:34;101162.00;;;12.80
22322;BMP180;11328;53.928;18.522;2022-10-17T03:00:06;101167.00;;;12.80
22322;BMP180;11328;53.928;18.522;2022-10-17T03:02:53;101179.00;;;12.80
22322;BMP180;11328;53.928;18.522;2022-10-17T03:05:25;101177.00;;;12.80
22322;BMP180;11328;53.928;18.522;2022-10-17T03:07:53;101174.00;;;12.80
22322;BMP180;11328;53.928;18.522;2022-10-17T03:10:21;101177.00;;;12.80
22322;BMP180;11328;53.928;18.522;2022-10-17T03:12:48;101182.00;;;12.80
22322;BMP180;11328;53.928;18.522;2022-10-17T03:15:15;101182.00;;;12.90
22322;BMP180;11328;53.928;18.522;2022-10-17T03:17:42;101178.00;;;12.90
22322;BMP180;11328;53.928;18.522;2022-10-17T03:20:14;101189.00;;;12.90
22322;BMP180;11328;53.928;18.522;2022-10-17T03:22:41;101195.00;;;12.90
22322;BMP180;11328;53.928;18.522;2022-10-17T03:25:08;101212.00;;;12.80
22322;BMP180;11328;53.928;18.522;2022-10-17T03:27:35;101206.00;;;12.80
22322;BMP180;11328;53.928;18.522;2022-10-17T03:30:02;101206.00;;;12.80
22322;BMP180;11328;53.928;18.522;2022-10-17T03:32:32;101178.00;;;12.80
22322;BMP180;11328;53.928;18.522;2022-10-17T03:34:59;101189.00;;;12.80
22322;BMP180;11328;53.928;18.522;2022-10-17T03:37:27;101188.00;;;12.80
22322;BMP180;11328;53.928;18.522;2022-10-17T03:39:54;101178.00;;;12.70
22322;BMP180;11328;53.928;18.522;2022-10-17T03:42:22;101187.00;;;12.60
22322;BMP180;11328;53.928;18.522;2022-10-17T03:44:49;101183.00;;;12.60
22322;BMP180;11328;53.928;18.522;2022-10-17T03:47:16;101180.00;;;12.60
22322;BMP180;11328;53.928;18.522;2022-10-17T03:49:43;101182.00;;;12.60
22322;BMP180;11328;53.928;18.522;2022-10-17T03:52:11;101183.00;;;12.60
22322;BMP180;11328;53.928;18.522;2022-10-17T03:54:39;101186.00;;;12.70
22322;BMP180;11328;53.928;18.522;2022-10-17T03:57:06;101188.00;;;12.70
22322;BMP180;11328;53.928;18.522;2022-10-17T03:59:33;101191.00;;;12.70
22322;BMP180;11328;53.928;18.522;2022-10-17T04:02:00;101191.00;;;12.80
22322;BMP180;11328;53.928;18.522;2022-10-17T04:04:27;101197.00;;;12.80
22322;BMP180;11328;53.928;18.522;2022-10-17T04:06:54;101216.00;;;12.80
22322;BMP180;11328;53.928;18.522;2022-10-17T04:09:21;101207.00;;;12.90
22322;BMP180;11328;53.928;18.522;2022-10-17T04:11:48;101197.00;;;12.90
22322;BMP180;11328;53.928;18.522;2022-10-17T04:14:15;101192.00;;;13.00
22322;BMP180;11328;53.928;18.522;2022-10-17T04:16:42;101234.00;;;13.20
22322;BMP180;11328;53.928;18.522;2022-10-17T04:19:12;101227.00;;;13.30
22322;BMP180;11328;53.928;18.522;2022-10-17T04:21:39;101228.00;;;13.50
22322;BMP180;11328;53.928;18.522;2022-10-17T04:24:09;101218.00;;;13.60
22322;BMP180;11328;53.928;18.522;2022-10-17T04:26:36;101213.00;;;13.70
22322;BMP180;11328;53.928;18.522;2022-10-17T04:29:03;101227.00;;;13.80
22322;BMP180;11328;53.928;18.522;2022-10-17T04:31:30;101231.00;;;13.80
22322;BMP180;11328;53.928;18.522;2022-10-17T04:33:57;101215.00;;;13.70
22322;BMP180;11328;53.928;18.522;2022-10-17T04:36:24;101216.00;;;13.80
22322;BMP180;11328;53.928;18.522;2022-10-17T04:38:51;101209.00;;;13.90
22322;BMP180;11328;53.928;18.522;2022-10-17T04:41:18;101216.00;;;13.90
22322;BMP180;11328;53.928;18.522;2022-10-17T04:43:45;101231.00;;;13.80
22322;BMP180;11328;53.928;18.522;2022-10-17T04:46:17;101232.00;;;13.80
22322;BMP180;11328;53.928;18.522;2022-10-17T04:48:44;101234.00;;;13.70
22322;BMP180;11328;53.928;18.522;2022-10-17T04:51:16;101231.00;;;13.60
22322;BMP180;11328;53.928;18.522;2022-10-17T04:53:49;101231.00;;;13.70
22322;BMP180;11328;53.928;18.522;2022-10-17T04:56:20;101235.00;;;13.60
22322;BMP180;11328;53.928;18.522;2022-10-17T04:58:47;101241.00;;;13.40
22322;BMP180;11328;53.928;18.522;2022-10-17T05:01:21;101246.00;;;13.20
22322;BMP180;11328;53.928;18.522;2022-10-17T05:03:52;101243.00;;;13.00
22322;BMP180;11328;53.928;18.522;2022-10-17T05:06:23;101233.00;;;12.90
22322;BMP180;11328;53.928;18.522;2022-10-17T05:08:50;101256.00;;;12.80
22322;BMP180;11328;53.928;18.522;2022-10-17T05:11:21;101252.00;;;12.70
22322;BMP180;11328;53.928;18.522;2022-10-17T05:13:55;101247.00;;;12.50
22322;BMP180;11328;53.928;18.522;2022-10-17T05:16:24;101244.00;;;12.40
22322;BMP180;11328;53.928;18.522;2022-10-17T05:18:54;101244.00;;;12.30
22322;BMP180;11328;53.928;18.522;2022-10-17T05:21:23;101241.00;;;12.30
22322;BMP180;11328;53.928;18.522;2022-10-17T05:23:51;101231.00;;;12.20
22322;BMP180;11328;53.928;18.522;2022-10-17T05:26:18;101229.00;;;12.20
22322;BMP180;11328;53.928;18.522;2022-10-17T05:28:45;101220.00;;;12.30
22322;BMP180;11328;53.928;18.522;2022-10-17T05:31:13;101224.00;;;12.30
22322;BMP180;11328;53.928;18.522;2022-10-17T05:33:40;101223.00;;;12.30
22322;BMP180;11328;53.928;18.522;2022-10-17T05:36:07;101216.00;;;12.30
22322;BMP180;11328;53.928;18.522;2022-10-17T05:38:35;101210.00;;;12.20
22322;BMP180;11328;53.928;18.522;2022-10-17T05:41:04;101207.00;;;12.20
22322;BMP180;11328;53.928;18.522;2022-10-17T05:43:32;101235.00;;;12.30
22322;BMP180;11328;53.928;18.522;2022-10-17T05:46:04;101228.00;;;12.40
22322;BMP180;11328;53.928;18.522;2022-10-17T05:48:31;101235.00;;;12.50
22322;BMP180;11328;53.928;18.522;2022-10-17T05:51:05;101242.00;;;12.60
22322;BMP180;11328;53.928;18.522;2022-10-17T05:53:36;101254.00;;;12.70
22322;BMP180;11328;53.928;18.522;2022-10-17T05:56:06;101259.00;;;12.80
22322;BMP180;11328;53.928;18.522;2022-10-17T05:58:34;101256.00;;;13.00
22322;BMP180;11328;53.928;18.522;2022-10-17T06:01:16;101266.00;;;13.10
22322;BMP180;11328;53.928;18.522;2022-10-17T06:03:43;101274.00;;;13.20
22322;BMP180;11328;53.928;18.522;2022-10-17T06:06:12;101246.00;;;13.30
22322;BMP180;11328;53.928;18.522;2022-10-17T06:08:40;101268.00;;;13.30
22322;BMP180;11328;53.928;18.522;2022-10-17T06:11:07;101263.00;;;13.40
22322;BMP180;11328;53.928;18.522;2022-10-17T06:13:37;101262.00;;;13.50
22322;BMP180;11328;53.928;18.522;2022-10-17T06:16:05;101266.00;;;13.60
22322;BMP180;11328;53.928;18.522;2022-10-17T06:18:33;101250.00;;;13.60
22322;BMP180;11328;53.928;18.522;2022-10-17T06:21:07;101265.00;;;13.60
22322;BMP180;11328;53.928;18.522;2022-10-17T06:23:34;101276.00;;;13.70
22322;BMP180;11328;53.928;18.522;2022-10-17T06:26:04;101283.00;;;13.70
22322;BMP180;11328;53.928;18.522;2022-10-17T06:28:31;101279.00;;;13.80
22322;BMP180;11328;53.928;18.522;2022-10-17T06:31:02;101276.00;;;14.00
22322;BMP180;11328;53.928;18.522;2022-10-17T06:33:29;101283.00;;;14.00
22322;BMP180;11328;53.928;18.522;2022-10-17T06:35:56;101278.00;;;14.10
22322;BMP180;11328;53.928;18.522;2022-10-17T06:38:23;101286.00;;;14.20
22322;BMP180;11328;53.928;18.522;2022-10-17T06:40:50;101294.00;;;14.20
22322;BMP180;11328;53.928;18.522;2022-10-17T06:43:20;101306.00;;;14.20
22322;BMP180;11328;53.928;18.522;2022-10-17T06:45:53;101308.00;;;14.20
22322;BMP180;11328;53.928;18.522;2022-10-17T06:48:20;101316.00;;;14.10
22322;BMP180;11328;53.928;18.522;2022-10-17T06:50:47;101312.00;;;14.10
22322;BMP180;11328;53.928;18.522;2022-10-17T06:53:14;101318.00;;;14.20
22322;BMP180;11328;53.928;18.522;2022-10-17T06:55:41;101317.00;;;14.30
22322;BMP180;11328;53.928;18.522;2022-10-17T06:58:08;101314.00;;;14.50
22322;BMP180;11328;53.928;18.522;2022-10-17T07:00:35;101324.00;;;14.70
22322;BMP180;11328;53.928;18.522;2022-10-17T07:03:02;101320.00;;;14.80
22322;BMP180;11328;53.928;18.522;2022-10-17T07:05:29;101304.00;;;14.90
22322;BMP180;11328;53.928;18.522;2022-10-17T07:07:56;101327.00;;;14.90
22322;BMP180;11328;53.928;18.522;2022-10-17T07:10:26;101324.00;;;15.10
22322;BMP180;11328;53.928;18.522;2022-10-17T07:12:53;101331.00;;;15.10
22322;BMP180;11328;53.928;18.522;2022-10-17T07:15:20;101329.00;;;15.20
22322;BMP180;11328;53.928;18.522;2022-10-17T07:17:48;101338.00;;;15.30
22322;BMP180;11328;53.928;18.522;2022-10-17T07:20:18;101334.00;;;15.40
22322;BMP180;11328;53.928;18.522;2022-10-17T07:22:45;101332.00;;;15.40
22322;BMP180;11328;53.928;18.522;2022-10-17T07:25:12;101333.00;;;15.40
22322;BMP180;11328;53.928;18.522;2022-10-17T07:27:39;101345.00;;;15.40
22322;BMP180;11328;53.928;18.522;2022-10-17T07:30:07;101341.00;;;15.50
22322;BMP180;11328;53.928;18.522;2022-10-17T07:32:34;101349.00;;;15.70
22322;BMP180;11328;53.928;18.522;2022-10-17T07:35:02;101352.00;;;15.70
22322;BMP180;11328;53.928;18.522;2022-10-17T07:37:28;101364.00;;;15.70
22322;BMP180;11328;53.928;18.522;2022-10-17T07:39:56;101355.00;;;15.70
22322;BMP180;11328;53.928;18.522;2022-10-17T07:42:23;101349.00;;;15.70
22322;BMP180;11328;53.928;18.522;2022-10-17T07:44:50;101332.00;;;15.70
22322;BMP180;11328;53.928;18.522;2022-10-17T07:47:17;101332.00;;;15.70
22322;BMP180;11328;53.928;18.522;2022-10-17T07:49:44;101330.00;;;15.70
22322;BMP180;11328;53.928;18.522;2022-10-17T07:52:13;101345.00;;;15.80
22322;BMP180;11328;53.928;18.522;2022-10-17T07:54:40;101345.00;;;15.90
22322;BMP180;11328;53.928;18.522;2022-10-17T07:57:08;101347.00;;;15.90
22322;BMP180;11328;53.928;18.522;2022-10-17T07:59:37;101334.00;;;15.90
22322;BMP180;11328;53.928;18.522;2022-10-17T08:02:04;101320.00;;;16.00
22322;BMP180;11328;53.928;18.522;2022-10-17T08:04:34;101329.00;;;16.00
22322;BMP180;11328;53.928;18.522;2022-10-17T08:07:02;101326.00;;;16.10
22322;BMP180;11328;53.928;18.522;2022-10-17T08:09:46;101330.00;;;16.20
22322;BMP180;11328;53.928;18.522;2022-10-17T08:12:14;101326.00;;;16.20
22322;BMP180;11328;53.928;18.522;2022-10-17T08:14:42;101310.00;;;16.20
22322;BMP180;11328;53.928;18.522;2022-10-17T08:17:09;101314.00;;;16.40
22322;BMP180;11328;53.928;18.522;2022-10-17T08:19:39;101306.00;;;16.70
22322;BMP180;11328;53.928;18.522;2022-10-17T08:22:07;101315.00;;;17.10
22322;BMP180;11328;53.928;18.522;2022-10-17T08:24:34;101301.00;;;17.50
22322;BMP180;11328;53.928;18.522;2022-10-17T08:27:01;101327.00;;;17.80
22322;BMP180;11328;53.928;18.522;2022-10-17T08:29:29;101324.00;;;18.00
22322;BMP180;11328;53.928;18.522;2022-10-17T08:32:02;101341.00;;;18.30
22322;BMP180;11328;53.928;18.522;2022-10-17T08:34:34;101341.00;;;18.60
22322;BMP180;11328;53.928;18.522;2022-10-17T08:37:01;101316.00;;;18.80
22322;BMP180;11328;53.928;18.522;2022-10-17T08:39:28;101332.00;;;19.00
22322;BMP180;11328;53.928;18.522;2022-10-17T08:42:18;101324.00;;;19.10
22322;BMP180;11328;53.928;18.522;2022-10-17T08:45:34;101328.00;;;18.90
22322;BMP180;11328;53.928;18.522;2022-10-17T08:48:07;101331.00;;;18.80
22322;BMP180;11328;53.928;18.522;2022-10-17T08:50:42;101329.00;;;18.80
22322;BMP180;11328;53.928;18.522;2022-10-17T08:53:31;101324.00;;;18.60
22322;BMP180;11328;53.928;18.522;2022-10-17T08:56:29;101332.00;;;18.40
22322;BMP180;11328;53.928;18.522;2022-10-17T08:59:24;101332.00;;;18.40
22322;BMP180;11328;53.928;18.522;2022-10-17T09:02:33;101326.00;;;18.20
22322;BMP180;11328;53.928;18.522;2022-10-17T09:08:21;101302.00;;;18.50
22322;BMP180;11328;53.928;18.522;2022-10-17T09:19:25;101324.00;;;19.50
22322;BMP180;11328;53.928;18.522;2022-10-17T09:22:11;101323.00;;;19.50
22322;BMP180;11328;53.928;18.522;2022-10-17T09:24:52;101326.00;;;19.40
22322;BMP180;11328;53.928;18.522;2022-10-17T09:27:39;101327.00;;;19.50
22322;BMP180;11328;53.928;18.522;2022-10-17T09:31:03;101343.00;;;19.50
22322;BMP180;11328;53.928;18.522;2022-10-17T09:33:18;101342.00;;;19.60
22322;BMP180;11328;53.928;18.522;2022-10-17T09:36:32;101343.00;;;19.80
22322;BMP180;11328;53.928;18.522;2022-10-17T09:39:19;101338.00;;;19.90
22322;BMP180;11328;53.928;18.522;2022-10-17T09:41:56;101339.00;;;19.80
22322;BMP180;11328;53.928;18.522;2022-10-17T09:44:33;101335.00;;;19.80
22322;BMP180;11328;53.928;18.522;2022-10-17T09:49:44;101334.00;;;20.00
22322;BMP180;11328;53.928;18.522;2022-10-17T09:52:19;101329.00;;;20.20
22322;BMP180;11328;53.928;18.522;2022-10-17T09:55:02;101329.00;;;20.30
22322;BMP180;11328;53.928;18.522;2022-10-17T10:00:25;101333.00;;;20.50
22322;BMP180;11328;53.928;18.522;2022-10-17T10:05:35;101327.00;;;20.60
22322;BMP180;11328;53.928;18.522;2022-10-17T10:08:18;101312.00;;;20.60
22322;BMP180;11328;53.928;18.522;2022-10-17T10:10:45;101326.00;;;20.60
22322;BMP180;11328;53.928;18.522;2022-10-17T10:15:43;101323.00;;;20.60
22322;BMP180;11328;53.928;18.522;2022-10-17T10:18:34;101317.00;;;20.60
22322;BMP180;11328;53.928;18.522;2022-10-17T10:21:14;101315.00;;;20.70
22322;BMP180;11328;53.928;18.522;2022-10-17T10:23:45;101308.00;;;20.80
22322;BMP180;11328;53.928;18.522;2022-10-17T10:28:39;101307.00;;;21.00
22322;BMP180;11328;53.928;18.522;2022-10-17T10:31:08;101302.00;;;21.00
22322;BMP180;11328;53.928;18.522;2022-10-17T10:33:42;101299.00;;;21.10
22322;BMP180;11328;53.928;18.522;2022-10-17T10:36:15;101300.00;;;21.10
22322;BMP180;11328;53.928;18.522;2022-10-17T10:38:54;101306.00;;;21.20
22322;BMP180;11328;53.928;18.522;2022-10-17T10:41:24;101298.00;;;21.30
22322;BMP180;11328;53.928;18.522;2022-10-17T10:43:54;101300.00;;;21.30
22322;BMP180;11328;53.928;18.522;2022-10-17T10:46:27;101304.00;;;21.40
22322;BMP180;11328;53.928;18.522;2022-10-17T10:48:59;101304.00;;;21.40
22322;BMP180;11328;53.928;18.522;2022-10-17T10:54:24;101305.00;;;21.50
22322;BMP180;11328;53.928;18.522;2022-10-17T10:56:59;101306.00;;;21.60
22322;BMP180;11328;53.928;18.522;2022-10-17T10:59:55;101302.00;;;21.70
22322;BMP180;11328;53.928;18.522;2022-10-17T11:02:35;101304.00;;;21.70
22322;BMP180;11328;53.928;18.522;2022-10-17T11:05:34;101299.00;;;21.70
22322;BMP180;11328;53.928;18.522;2022-10-17T11:08:39;101299.00;;;21.80
22322;BMP180;11328;53.928;18.522;2022-10-17T11:11:31;101296.00;;;21.80
22322;BMP180;11328;53.928;18.522;2022-10-17T11:17:26;101289.00;;;21.90
22322;BMP180;11328;53.928;18.522;2022-10-17T11:20:29;101289.00;;;21.90
22322;BMP180;11328;53.928;18.522;2022-10-17T11:25:58;101285.00;;;22.10
22322;BMP180;11328;53.928;18.522;2022-10-17T11:28:25;101279.00;;;22.10
22322;BMP180;11328;53.928;18.522;2022-10-17T11:31:06;101273.00;;;22.20
22322;BMP180;11328;53.928;18.522;2022-10-17T11:36:25;101260.00;;;22.30
22322;BMP180;11328;53.928;18.522;2022-10-17T11:38:57;101262.00;;;22.30
22322;BMP180;11328;53.928;18.522;2022-10-17T11:44:36;101253.00;;;22.30
22322;BMP180;11328;53.928;18.522;2022-10-17T11:47:52;101256.00;;;22.40
22322;BMP180;11328;53.928;18.522;2022-10-17T11:50:41;101257.00;;;22.40
22322;BMP180;11328;53.928;18.522;2022-10-17T11:53:53;101251.00;;;22.40
22322;BMP180;11328;53.928;18.522;2022-10-17T11:56:35;101256.00;;;22.40
22322;BMP180;11328;53.928;18.522;2022-10-17T11:59:38;101253.00;;;22.40
22322;BMP180;11328;53.928;18.522;2022-10-17T12:02:39;101230.00;;;22.40
22322;BMP180;11328;53.928;18.522;2022-10-17T12:05:34;101250.00;;;22.40
22322;BMP180;11328;53.928;18.522;2022-10-17T12:08:48;101243.00;;;22.40
22322;BMP180;11328;53.928;18.522;2022-10-17T12:11:52;101248.00;;;22.40
22322;BMP180;11328;53.928;18.522;2022-10-17T12:17:28;101250.00;;;22.50
22322;BMP180;11328;53.928;18.522;2022-10-17T12:20:23;101243.00;;;22.60
22322;BMP180;11328;53.928;18.522;2022-10-17T12:25:56;101244.00;;;22.60
22322;BMP180;11328;53.928;18.522;2022-10-17T12:28:48;101228.00;;;22.60
22322;BMP180;11328;53.928;18.522;2022-10-17T12:33:50;101230.00;;;22.60
22322;BMP180;11328;53.928;18.522;2022-10-17T12:49:46;101206.00;;;22.70
22322;BMP180;11328;53.928;18.522;2022-10-17T12:58:03;101195.00;;;22.80
22322;BMP180;11328;53.928;18.522;2022-10-17T13:00:55;101194.00;;;22.90
22322;BMP180;11328;53.928;18.522;2022-10-17T13:03:47;101198.00;;;22.90
22322;BMP180;11328;53.928;18.522;2022-10-17T13:06:23;101187.00;;;23.00
22322;BMP180;11328;53.928;18.522;2022-10-17T13:09:00;101197.00;;;23.00
22322;BMP180;11328;53.928;18.522;2022-10-17T13:11:35;101195.00;;;23.00
22322;BMP180;11328;53.928;18.522;2022-10-17T13:14:12;101187.00;;;23.10
22322;BMP180;11328;53.928;18.522;2022-10-17T13:16:58;101172.00;;;23.20
22322;BMP180;11328;53.928;18.522;2022-10-17T13:19:43;101176.00;;;23.20
22322;BMP180;11328;53.928;18.522;2022-10-17T13:22:28;101164.00;;;23.30
22322;BMP180;11328;53.928;18.522;2022-10-17T13:25:19;101170.00;;;23.30
22322;BMP180;11328;53.928;18.522;2022-10-17T13:27:48;101162.00;;;23.40
22322;BMP180;11328;53.928;18.522;2022-10-17T13:30:31;101151.00;;;23.40
22322;BMP180;11328;53.928;18.522;2022-10-17T13:32:59;101158.00;;;23.40
22322;BMP180;11328;53.928;18.522;2022-10-17T13:35:33;101161.00;;;23.30
22322;BMP180;11328;53.928;18.522;2022-10-17T13:38:29;101156.00;;;23.30
22322;BMP180;11328;53.928;18.522;2022-10-17T13:41:00;101158.00;;;23.30
22322;BMP180;11328;53.928;18.522;2022-10-17T13:43:49;101157.00;;;23.30
22322;BMP180;11328;53.928;18.522;2022-10-17T13:46:33;101149.00;;;23.30
22322;BMP180;11328;53.928;18.522;2022-10-17T13:49:35;101154.00;;;23.30
22322;BMP180;11328;53.928;18.522;2022-10-17T13:52:13;101151.00;;;23.30
22322;BMP180;11328;53.928;18.522;2022-10-17T13:54:46;101148.00;;;23.30
22322;BMP180;11328;53.928;18.522;2022-10-17T13:57:23;101131.00;;;23.30
22322;BMP180;11328;53.928;18.522;2022-10-17T14:00:02;101137.00;;;23.20
22322;BMP180;11328;53.928;18.522;2022-10-17T14:02:39;101129.00;;;23.20
22322;BMP180;11328;53.928;18.522;2022-10-17T14:05:18;101129.00;;;23.20
22322;BMP180;11328;53.928;18.522;2022-10-17T14:08:02;101129.00;;;23.20
22322;BMP180;11328;53.928;18.522;2022-10-17T14:10:42;101122.00;;;23.10
22322;BMP180;11328;53.928;18.522;2022-10-17T14:13:27;101125.00;;;23.10
22322;BMP180;11328;53.928;18.522;2022-10-17T14:16:00;101133.00;;;23.10
22322;BMP180;11328;53.928;18.522;2022-10-17T14:18:33;101123.00;;;23.10
22322;BMP180;11328;53.928;18.522;2022-10-17T14:21:04;101125.00;;;23.00
22322;BMP180;11328;53.928;18.522;2022-10-17T14:24:32;101120.00;;;23.00
22322;BMP180;11328;53.928;18.522;2022-10-17T14:26:59;101117.00;;;23.00
22322;BMP180;11328;53.928;18.522;2022-10-17T14:29:28;101113.00;;;23.00
22322;BMP180;11328;53.928;18.522;2022-10-17T14:32:12;101117.00;;;23.00
22322;BMP180;11328;53.928;18.522;2022-10-17T14:34:40;101119.00;;;22.90
22322;BMP180;11328;53.928;18.522;2022-10-17T14:37:46;101110.00;;;22.90
22322;BMP180;11328;53.928;18.522;2022-10-17T14:40:21;101114.00;;;22.80
22322;BMP180;11328;53.928;18.522;2022-10-17T14:42:57;101115.00;;;22.80
22322;BMP180;11328;53.928;18.522;2022-10-17T14:45:35;101106.00;;;22.80
22322;BMP180;11328;53.928;18.522;2022-10-17T14:48:12;101106.00;;;22.70
22322;BMP180;11328;53.928;18.522;2022-10-17T14:50:40;101107.00;;;22.60
22322;BMP180;11328;53.928;18.522;2022-10-17T14:55:54;101108.00;;;22.60
22322;BMP180;11328;53.928;18.522;2022-10-17T14:58:32;101107.00;;;22.60
22322;BMP180;11328;53.928;18.522;2022-10-17T15:01:01;101096.00;;;22.60
22322;BMP180;11328;53.928;18.522;2022-10-17T15:03:28;101092.00;;;22.60
22322;BMP180;11328;53.928;18.522;2022-10-17T15:05:55;101084.00;;;22.50
22322;BMP180;11328;53.928;18.522;2022-10-17T15:08:23;101088.00;;;22.50
22322;BMP180;11328;53.928;18.522;2022-10-17T15:10:51;101085.00;;;22.50
22322;BMP180;11328;53.928;18.522;2022-10-17T15:13:18;101079.00;;;22.40
22322;BMP180;11328;53.928;18.522;2022-10-17T15:15:55;101083.00;;;22.40
22322;BMP180;11328;53.928;18.522;2022-10-17T15:18:22;101079.00;;;22.40
22322;BMP180;11328;53.928;18.522;2022-10-17T15:20:49;101081.00;;;22.30
22322;BMP180;11328;53.928;18.522;2022-10-17T15:23:31;101077.00;;;22.20
22322;BMP180;11328;53.928;18.522;2022-10-17T15:25:57;101074.00;;;22.20
22322;BMP180;11328;53.928;18.522;2022-10-17T15:28:24;101073.00;;;22.10
22322;BMP180;11328;53.928;18.522;2022-10-17T15:30:53;101075.00;;;22.10
22322;BMP180;11328;53.928;18.522;2022-10-17T15:33:20;101082.00;;;22.10
22322;BMP180;11328;53.928;18.522;2022-10-17T15:35:47;101061.00;;;22.00
22322;BMP180;11328;53.928;18.522;2022-10-17T15:38:16;101068.00;;;21.90
22322;BMP180;11328;53.928;18.522;2022-10-17T15:40:43;101068.00;;;21.90
22322;BMP180;11328;53.928;18.522;2022-10-17T15:43:14;101071.00;;;21.80
22322;BMP180;11328;53.928;18.522;2022-10-17T15:45:46;101069.00;;;21.80
22322;BMP180;11328;53.928;18.522;2022-10-17T15:48:24;101070.00;;;21.70
22322;BMP180;11328;53.928;18.522;2022-10-17T15:50:53;101076.00;;;21.70
22322;BMP180;11328;53.928;18.522;2022-10-17T15:53:20;101074.00;;;21.70
22322;BMP180;11328;53.928;18.522;2022-10-17T15:55:48;101077.00;;;21.60